createdAt,value
2018-12-12T00:00:04.207Z,0.70
2018-12-12T00:02:30.844Z,0.60
2018-12-12T00:04:57.597Z,0.60
2018-12-12T00:07:24.504Z,0.60
2018-12-12T00:09:51.180Z,0.60
2018-12-12T00:12:17.872Z,0.70
2018-12-12T00:14:44.515Z,0.70
2018-12-12T00:17:11.222Z,0.70
2018-12-12T00:19:37.877Z,0.70
2018-12-12T00:22:04.836Z,0.70
2018-12-12T00:24:31.489Z,0.70
2018-12-12T00:26:58.184Z,0.70
2018-12-12T00:29:24.888Z,0.60
2018-12-12T00:31:51.660Z,0.60
2018-12-12T00:34:18.310Z,0.70
2018-12-12T00:36:44.975Z,0.70
2018-12-12T00:39:11.625Z,0.70
2018-12-12T00:41:38.317Z,0.80
2018-12-12T00:44:05.184Z,0.70
2018-12-12T00:46:32.039Z,0.70
2018-12-12T00:49:05.739Z,0.70
2018-12-12T00:51:32.609Z,0.70
2018-12-12T00:53:59.308Z,0.70
2018-12-12T00:56:25.951Z,0.70
2018-12-12T00:58:52.621Z,0.70
2018-12-12T01:01:19.288Z,0.70
2018-12-12T01:03:45.965Z,0.80
2018-12-12T01:06:12.744Z,0.80
2018-12-12T01:08:39.420Z,0.70
2018-12-12T01:11:12.153Z,0.70
2018-12-12T01:13:38.840Z,0.70
2018-12-12T01:16:05.487Z,0.70
2018-12-12T01:18:32.161Z,0.80
2018-12-12T01:20:58.802Z,0.70
2018-12-12T01:23:25.443Z,0.70
2018-12-12T01:25:52.101Z,0.80
2018-12-12T01:28:18.768Z,0.80
2018-12-12T01:30:45.545Z,0.80
2018-12-12T01:33:12.211Z,0.80
2018-12-12T01:35:38.892Z,0.80
2018-12-12T01:38:05.540Z,0.80
2018-12-12T01:40:32.216Z,0.80
2018-12-12T01:42:58.920Z,0.80
2018-12-12T01:45:25.709Z,0.70
2018-12-12T01:47:52.343Z,0.80
2018-12-12T01:50:19.012Z,0.80
2018-12-12T01:52:45.655Z,0.80
2018-12-12T01:55:12.359Z,0.80
2018-12-12T01:57:39.037Z,0.70
2018-12-12T02:00:05.896Z,0.80
2018-12-12T02:02:32.546Z,0.80
2018-12-12T02:04:59.223Z,0.80
2018-12-12T02:07:25.888Z,0.80
2018-12-12T02:09:52.581Z,0.80
2018-12-12T02:12:19.221Z,0.70
2018-12-12T02:14:45.896Z,0.70
2018-12-12T02:17:12.580Z,0.80
2018-12-12T02:19:39.392Z,0.80
2018-12-12T02:22:06.088Z,0.80
2018-12-12T02:24:32.711Z,0.80
2018-12-12T02:26:59.400Z,0.80
2018-12-12T02:29:25.984Z,0.90
2018-12-12T02:31:52.681Z,0.90
2018-12-12T02:34:19.332Z,0.80
2018-12-12T02:36:46.020Z,0.80
2018-12-12T02:39:12.705Z,0.80
2018-12-12T02:41:39.354Z,0.80
2018-12-12T02:44:06.064Z,0.80
2018-12-12T02:46:32.749Z,0.80
2018-12-12T02:48:59.437Z,0.80
2018-12-12T02:51:26.088Z,0.90
2018-12-12T02:53:52.769Z,0.80
2018-12-12T02:56:19.436Z,0.80
2018-12-12T02:58:46.080Z,0.90
2018-12-12T03:01:12.753Z,0.90
2018-12-12T03:03:39.415Z,0.80
2018-12-12T03:06:06.156Z,0.70
2018-12-12T03:08:33.022Z,0.80
2018-12-12T03:10:59.755Z,0.80
2018-12-12T03:13:26.415Z,0.80
2018-12-12T03:15:53.093Z,0.80
2018-12-12T03:18:19.727Z,0.70
2018-12-12T03:20:46.405Z,0.70
2018-12-12T03:23:13.044Z,0.70
2018-12-12T03:25:39.713Z,0.70
2018-12-12T03:28:06.352Z,0.70
2018-12-12T03:30:33.105Z,0.80
2018-12-12T03:32:59.758Z,0.70
2018-12-12T03:35:26.424Z,0.70
2018-12-12T03:37:53.068Z,0.70
2018-12-12T03:40:20.278Z,0.70
2018-12-12T03:42:47.431Z,0.70
2018-12-12T03:45:14.105Z,0.70
2018-12-12T03:47:40.771Z,0.70
2018-12-12T03:50:07.585Z,0.70
2018-12-12T03:52:34.256Z,0.70
2018-12-12T03:55:00.925Z,0.80
2018-12-12T03:57:27.611Z,0.80
2018-12-12T03:59:54.237Z,0.80
2018-12-12T04:02:20.935Z,0.70
2018-12-12T04:04:47.604Z,0.70
2018-12-12T04:07:14.289Z,0.70
2018-12-12T04:09:40.966Z,0.70
2018-12-12T04:12:07.652Z,0.70
2018-12-12T04:14:34.309Z,0.60
2018-12-12T04:17:01.001Z,0.60
2018-12-12T04:19:27.653Z,0.60
2018-12-12T04:21:54.483Z,0.50
2018-12-12T04:24:23.300Z,0.50
2018-12-12T04:26:49.945Z,0.70
2018-12-12T04:29:17.424Z,0.70
2018-12-12T04:31:44.052Z,0.60
2018-12-12T04:34:10.714Z,0.50
2018-12-12T04:36:37.359Z,0.50
2018-12-12T04:39:05.316Z,0.50
2018-12-12T04:41:31.961Z,0.50
2018-12-12T04:43:58.648Z,0.50
2018-12-12T04:46:25.448Z,0.50
2018-12-12T04:48:52.142Z,0.40
2018-12-12T04:51:18.798Z,0.40
2018-12-12T04:53:45.490Z,0.40
2018-12-12T04:56:12.157Z,0.40
2018-12-12T04:58:38.844Z,0.30
2018-12-12T05:01:05.472Z,0.30
2018-12-12T05:03:32.165Z,0.30
2018-12-12T05:05:58.806Z,0.30
2018-12-12T05:08:25.476Z,0.30
2018-12-12T05:10:52.237Z,0.30
2018-12-12T05:13:18.944Z,0.30
2018-12-12T05:15:45.695Z,0.30
2018-12-12T05:18:12.364Z,0.30
2018-12-12T05:20:39.044Z,0.30
2018-12-12T05:23:05.667Z,0.30
2018-12-12T05:25:32.340Z,0.30
2018-12-12T05:27:58.976Z,0.30
2018-12-12T05:30:25.664Z,0.20
2018-12-12T05:32:52.311Z,0.30
2018-12-12T05:35:18.980Z,0.30
2018-12-12T05:37:50.742Z,0.30
2018-12-12T05:40:14.518Z,0.30
2018-12-12T05:42:41.305Z,0.30
2018-12-12T05:45:08.016Z,0.30
2018-12-12T05:47:34.684Z,0.40
2018-12-12T05:50:01.341Z,0.30
2018-12-12T05:52:28.020Z,0.30
2018-12-12T05:54:54.641Z,0.30
2018-12-12T05:57:21.271Z,0.30
2018-12-12T05:59:47.952Z,0.30
2018-12-12T06:02:14.590Z,0.40
2018-12-12T06:04:41.264Z,0.40
2018-12-12T06:07:07.903Z,0.40
2018-12-12T06:09:34.567Z,0.30
2018-12-12T06:12:01.234Z,0.30
2018-12-12T06:14:27.934Z,0.30
2018-12-12T06:16:54.660Z,0.30
2018-12-12T06:19:21.344Z,0.30
2018-12-12T06:21:48.035Z,0.30
2018-12-12T06:24:14.740Z,0.30
2018-12-12T06:26:41.392Z,0.30
2018-12-12T06:29:08.056Z,0.30
2018-12-12T06:31:34.715Z,0.20
2018-12-12T06:34:01.415Z,0.20
2018-12-12T06:36:28.319Z,0.30
2018-12-12T06:38:55.123Z,0.20
2018-12-12T06:41:22.022Z,0.20
2018-12-12T06:43:48.849Z,0.20
2018-12-12T06:46:15.756Z,0.20
2018-12-12T06:48:42.563Z,0.30
2018-12-12T06:51:09.405Z,0.30
2018-12-12T06:53:36.241Z,0.30
2018-12-12T06:56:02.931Z,0.20
2018-12-12T06:58:29.563Z,0.30
2018-12-12T07:00:56.277Z,0.30
2018-12-12T07:03:22.929Z,0.30
2018-12-12T07:05:49.592Z,0.30
2018-12-12T07:08:16.290Z,0.30
2018-12-12T07:10:42.944Z,0.30
2018-12-12T07:13:09.700Z,0.20
2018-12-12T07:15:37.252Z,0.30
2018-12-12T07:18:04.004Z,0.40
2018-12-12T07:20:30.672Z,0.40
2018-12-12T07:22:57.352Z,0.30
2018-12-12T07:25:24.148Z,0.40
2018-12-12T07:27:57.856Z,0.40
2018-12-12T07:30:24.932Z,0.50
2018-12-12T07:32:51.751Z,0.60
2018-12-12T07:35:18.430Z,0.50
2018-12-12T07:37:45.410Z,0.50
2018-12-12T07:40:12.111Z,0.50
2018-12-12T07:42:38.876Z,0.50
2018-12-12T07:45:05.570Z,0.50
2018-12-12T07:47:32.289Z,0.50
2018-12-12T07:49:59.100Z,0.50
2018-12-12T07:52:25.742Z,0.50
2018-12-12T07:54:53.148Z,0.50
2018-12-12T07:57:19.840Z,0.50
2018-12-12T07:59:46.537Z,0.60
2018-12-12T08:02:13.172Z,0.60
2018-12-12T08:04:39.856Z,0.60
2018-12-12T08:07:06.512Z,0.60
2018-12-12T08:09:33.176Z,0.60
2018-12-12T08:11:59.824Z,0.60
2018-12-12T08:14:26.500Z,0.70
2018-12-12T08:16:53.141Z,0.70
2018-12-12T08:19:20.447Z,0.70
2018-12-12T08:21:47.186Z,0.80
2018-12-12T08:24:13.872Z,0.80
2018-12-12T08:26:40.552Z,0.80
2018-12-12T08:29:07.192Z,0.80
2018-12-12T08:31:33.885Z,0.80
2018-12-12T08:34:00.524Z,0.80
2018-12-12T08:36:27.991Z,0.80
2018-12-12T08:38:54.640Z,0.80
2018-12-12T08:41:21.304Z,0.80
2018-12-12T08:43:47.952Z,0.80
2018-12-12T08:46:14.616Z,0.90
2018-12-12T08:48:41.248Z,0.80
2018-12-12T08:51:07.921Z,0.80
2018-12-12T08:53:34.581Z,0.80
2018-12-12T08:56:01.268Z,0.80
2018-12-12T08:58:27.940Z,0.90
2018-12-12T09:00:54.695Z,0.90
2018-12-12T09:03:21.402Z,1.00
2018-12-12T09:05:48.215Z,1.00
2018-12-12T09:08:14.920Z,1.00
2018-12-12T09:10:41.556Z,1.10
2018-12-12T09:13:08.304Z,1.10
2018-12-12T09:15:34.956Z,1.10
2018-12-12T09:18:01.629Z,1.10
2018-12-12T09:20:28.264Z,1.10
2018-12-12T09:22:55.033Z,1.20
2018-12-12T09:25:28.545Z,1.20
2018-12-12T09:27:55.280Z,1.30
2018-12-12T09:30:21.991Z,1.40
2018-12-12T09:32:48.788Z,1.40
2018-12-12T09:35:15.457Z,1.40
2018-12-12T09:37:42.088Z,1.40
2018-12-12T09:40:08.773Z,1.40
2018-12-12T09:42:35.416Z,1.30
2018-12-12T09:45:02.377Z,1.30
2018-12-12T09:47:29.172Z,1.40
2018-12-12T09:49:55.837Z,1.40
2018-12-12T09:52:22.532Z,1.30
2018-12-12T09:54:49.224Z,1.30
2018-12-12T09:57:15.909Z,1.30
2018-12-12T09:59:42.557Z,1.30
2018-12-12T10:02:09.260Z,1.30
2018-12-12T10:04:35.928Z,1.30
2018-12-12T10:07:02.575Z,1.30
2018-12-12T10:09:29.268Z,1.30
2018-12-12T10:11:55.896Z,1.30
2018-12-12T10:14:22.577Z,1.20
2018-12-12T10:16:49.260Z,1.20
2018-12-12T10:19:15.953Z,1.30
2018-12-12T10:21:42.880Z,1.30
2018-12-12T10:24:09.700Z,1.30
2018-12-12T10:26:36.357Z,1.40
2018-12-12T10:29:10.176Z,1.40
2018-12-12T10:31:36.840Z,1.40
2018-12-12T10:34:03.578Z,1.30
2018-12-12T10:36:30.336Z,1.40
2018-12-12T10:38:57.090Z,1.30
2018-12-12T10:41:23.836Z,1.30
2018-12-12T10:43:50.468Z,1.30
2018-12-12T10:46:17.164Z,1.30
2018-12-12T10:48:43.817Z,1.30
2018-12-12T10:51:10.529Z,1.40
2018-12-12T10:53:44.118Z,1.30
2018-12-12T10:56:10.832Z,1.30
2018-12-12T10:58:38.311Z,1.30
2018-12-12T11:01:11.204Z,1.30
2018-12-12T11:03:44.233Z,1.30
2018-12-12T11:06:08.674Z,1.30
2018-12-12T11:08:35.344Z,1.40
2018-12-12T11:11:02.031Z,1.40
2018-12-12T11:13:28.689Z,1.40
2018-12-12T11:15:55.387Z,1.50
2018-12-12T11:18:22.029Z,1.40
2018-12-12T11:20:48.713Z,1.50
2018-12-12T11:23:15.388Z,1.50
2018-12-12T11:25:42.039Z,1.50
2018-12-12T11:28:08.708Z,1.40
2018-12-12T11:30:35.373Z,1.40
2018-12-12T11:33:02.060Z,1.40
2018-12-12T11:35:28.693Z,1.50
2018-12-12T11:37:55.364Z,1.40
2018-12-12T11:40:22.036Z,1.50
2018-12-12T11:42:48.752Z,1.60
2018-12-12T11:45:15.394Z,1.60
2018-12-12T11:47:42.645Z,1.60
2018-12-12T11:50:09.279Z,1.60
2018-12-12T11:52:35.960Z,1.70
2018-12-12T11:55:02.686Z,1.60
2018-12-12T11:57:29.621Z,1.60
2018-12-12T11:59:56.300Z,1.60
2018-12-12T12:02:22.954Z,1.70
2018-12-12T12:04:49.611Z,1.70
2018-12-12T12:07:16.260Z,1.80
2018-12-12T12:09:42.952Z,1.80
2018-12-12T12:12:09.616Z,1.70
2018-12-12T12:14:36.328Z,1.60
2018-12-12T12:17:03.124Z,1.60
2018-12-12T12:19:29.818Z,1.70
2018-12-12T12:21:56.464Z,1.70
2018-12-12T12:24:24.317Z,1.70
2018-12-12T12:26:51.185Z,1.70
2018-12-12T12:29:18.049Z,1.80
2018-12-12T12:31:44.805Z,1.70
2018-12-12T12:34:11.552Z,1.70
2018-12-12T12:36:38.217Z,1.60
2018-12-12T12:39:06.164Z,1.60
2018-12-12T12:41:32.874Z,1.60
2018-12-12T12:43:59.721Z,1.60
2018-12-12T12:46:26.395Z,1.70
2018-12-12T12:48:53.056Z,1.60
2018-12-12T12:51:19.732Z,1.70
2018-12-12T12:53:46.396Z,1.60
2018-12-12T12:56:13.117Z,1.60
2018-12-12T12:58:39.831Z,1.50
2018-12-12T13:01:06.508Z,1.50
2018-12-12T13:03:33.151Z,1.60
2018-12-12T13:05:59.824Z,1.50
2018-12-12T13:08:26.528Z,1.50
2018-12-12T13:10:53.192Z,1.50
2018-12-12T13:13:20.270Z,1.50
2018-12-12T13:15:47.552Z,1.60
2018-12-12T13:18:14.347Z,1.50
2018-12-12T13:20:41.016Z,1.50
2018-12-12T13:23:07.711Z,1.50
2018-12-12T13:25:34.356Z,1.40
2018-12-12T13:28:01.028Z,1.40
2018-12-12T13:30:27.680Z,1.40
2018-12-12T13:32:54.365Z,1.40
2018-12-12T13:35:21.033Z,1.40
2018-12-12T13:37:47.736Z,1.50
2018-12-12T13:40:14.392Z,1.60
2018-12-12T13:42:41.068Z,1.60
2018-12-12T13:45:07.960Z,1.50
2018-12-12T13:47:34.623Z,1.50
2018-12-12T13:50:01.328Z,1.40
2018-12-12T13:52:27.964Z,1.40
2018-12-12T13:54:55.052Z,1.50
2018-12-12T13:57:21.722Z,1.50
2018-12-12T13:59:48.566Z,1.60
2018-12-12T14:02:15.237Z,1.60
2018-12-12T14:04:41.904Z,1.60
2018-12-12T14:07:08.554Z,1.60
2018-12-12T14:09:35.256Z,1.70
2018-12-12T14:12:01.931Z,1.80
2018-12-12T14:14:28.585Z,1.70
2018-12-12T14:16:55.265Z,1.70
2018-12-12T14:19:21.896Z,1.70
2018-12-12T14:21:48.572Z,1.70
2018-12-12T14:24:15.220Z,1.90
2018-12-12T14:26:41.939Z,2.00
2018-12-12T14:29:08.592Z,2.00
2018-12-12T14:31:35.272Z,2.00
2018-12-12T14:34:01.920Z,2.00
2018-12-12T14:36:28.622Z,1.90
2018-12-12T14:38:55.264Z,1.90
2018-12-12T14:41:21.899Z,1.90
2018-12-12T14:43:48.601Z,1.90
2018-12-12T14:46:15.255Z,1.90
2018-12-12T14:48:41.948Z,1.80
2018-12-12T14:51:08.597Z,1.70
2018-12-12T14:53:35.298Z,1.70
2018-12-12T14:56:01.973Z,1.70
2018-12-12T14:58:28.668Z,1.60
2018-12-12T15:00:55.324Z,1.60
2018-12-12T15:03:22.013Z,1.60
2018-12-12T15:05:48.679Z,1.60
2018-12-12T15:08:15.512Z,1.60
2018-12-12T15:10:42.155Z,1.60
2018-12-12T15:13:08.837Z,1.60
2018-12-12T15:15:35.544Z,1.60
2018-12-12T15:18:02.235Z,1.50
2018-12-12T15:20:28.913Z,1.50
2018-12-12T15:22:55.572Z,1.50
2018-12-12T15:25:22.241Z,1.50
2018-12-12T15:27:48.897Z,1.50
2018-12-12T15:30:15.588Z,1.50
2018-12-12T15:32:42.239Z,1.40
2018-12-12T15:35:08.936Z,1.40
2018-12-12T15:37:35.611Z,1.40
2018-12-12T15:40:04.044Z,1.40
2018-12-12T15:42:30.709Z,1.40
2018-12-12T15:44:57.396Z,1.40
2018-12-12T15:47:24.087Z,1.40
2018-12-12T15:49:51.005Z,1.50
2018-12-12T15:52:17.756Z,1.50
2018-12-12T15:54:44.408Z,1.50
2018-12-12T15:57:11.208Z,1.50
2018-12-12T15:59:37.873Z,1.40
2018-12-12T16:02:04.720Z,1.40
2018-12-12T16:04:31.413Z,1.30
2018-12-12T16:06:58.120Z,1.20
2018-12-12T16:09:25.149Z,1.10
2018-12-12T16:11:51.844Z,1.00
2018-12-12T16:14:18.537Z,1.00
2018-12-12T16:16:45.245Z,1.00
2018-12-12T16:19:11.939Z,1.00
2018-12-12T16:21:38.966Z,1.00
2018-12-12T16:24:05.773Z,0.90
2018-12-12T16:26:32.416Z,0.90
2018-12-12T16:29:05.983Z,0.90
2018-12-12T16:31:32.628Z,0.90
2018-12-12T16:33:59.341Z,0.90
2018-12-12T16:36:26.069Z,1.00
2018-12-12T16:38:52.740Z,1.00
2018-12-12T16:41:19.383Z,1.00
2018-12-12T16:43:46.105Z,1.00
2018-12-12T16:46:12.744Z,1.10
2018-12-12T16:48:39.424Z,1.10
2018-12-12T16:51:13.113Z,1.10
2018-12-12T16:53:40.202Z,1.10
2018-12-12T16:56:07.068Z,1.10
2018-12-12T16:58:33.702Z,1.10
2018-12-12T17:01:00.374Z,1.20
2018-12-12T17:03:27.041Z,1.40
2018-12-12T17:05:53.740Z,1.40
2018-12-12T17:08:20.381Z,1.20
2018-12-12T17:10:47.057Z,1.00
2018-12-12T17:13:13.688Z,0.90
2018-12-12T17:15:40.359Z,0.80
2018-12-12T17:18:06.993Z,0.70
2018-12-12T17:20:33.676Z,0.70
2018-12-12T17:23:00.328Z,0.70
2018-12-12T17:25:27.017Z,0.70
2018-12-12T17:27:53.676Z,0.60
2018-12-12T17:30:20.344Z,0.60
2018-12-12T17:32:47.248Z,0.50
2018-12-12T17:35:13.915Z,0.50
2018-12-12T17:37:47.384Z,0.50
2018-12-12T17:40:14.065Z,0.50
2018-12-12T17:42:40.750Z,0.40
2018-12-12T17:45:14.596Z,0.40
2018-12-12T17:47:41.283Z,0.40
2018-12-12T17:50:07.940Z,0.40
2018-12-12T17:52:34.623Z,0.40
2018-12-12T17:55:01.255Z,0.40
2018-12-12T17:57:27.969Z,0.40
2018-12-12T18:00:01.681Z,0.40
2018-12-12T18:02:28.346Z,0.40
2018-12-12T18:04:55.031Z,0.40
2018-12-12T18:07:21.664Z,0.30
2018-12-12T18:09:48.337Z,0.40
2018-12-12T18:12:15.098Z,0.40
2018-12-12T18:14:41.744Z,0.40
2018-12-12T18:17:08.426Z,0.30
2018-12-12T18:19:35.096Z,0.30
2018-12-12T18:22:01.747Z,0.30
2018-12-12T18:24:28.424Z,0.40
2018-12-12T18:26:55.100Z,0.40
2018-12-12T18:29:21.744Z,0.40
2018-12-12T18:31:48.444Z,0.40
2018-12-12T18:34:15.196Z,0.40
2018-12-12T18:36:41.836Z,0.40
2018-12-12T18:39:08.420Z,0.40
2018-12-12T18:41:35.125Z,0.40
2018-12-12T18:44:01.804Z,0.40
2018-12-12T18:46:28.492Z,0.30
2018-12-12T18:48:55.124Z,0.40
2018-12-12T18:51:21.813Z,0.40
2018-12-12T18:53:48.468Z,0.30
2018-12-12T18:56:15.216Z,0.20
2018-12-12T18:58:41.870Z,0.30
2018-12-12T19:01:08.556Z,0.40
2018-12-12T19:03:35.338Z,0.40
2018-12-12T19:06:04.191Z,0.40
2018-12-12T19:08:30.829Z,0.30
2018-12-12T19:10:57.544Z,0.30
2018-12-12T19:13:24.228Z,0.30
2018-12-12T19:15:50.896Z,0.40
2018-12-12T19:18:17.593Z,0.30
2018-12-12T19:20:44.341Z,0.30
2018-12-12T19:23:11.580Z,0.30
2018-12-12T19:25:38.379Z,0.30
2018-12-12T19:28:05.072Z,0.30
2018-12-12T19:30:31.883Z,0.30
2018-12-12T19:32:58.627Z,0.40
2018-12-12T19:35:25.431Z,0.40
2018-12-12T19:37:52.145Z,0.40
2018-12-12T19:40:18.792Z,0.50
2018-12-12T19:42:45.573Z,0.40
2018-12-12T19:45:13.555Z,0.40
2018-12-12T19:47:40.741Z,0.40
2018-12-12T19:50:07.786Z,0.30
2018-12-12T19:52:35.020Z,0.30
2018-12-12T19:55:02.319Z,0.30
2018-12-12T19:57:29.262Z,0.20
2018-12-12T19:59:56.005Z,0.10
2018-12-12T20:02:22.685Z,0.00
2018-12-12T20:04:50.424Z,0.00
2018-12-12T20:07:17.108Z,-0.10
2018-12-12T20:09:43.916Z,-0.10
2018-12-12T20:12:10.583Z,-0.10
2018-12-12T20:14:37.358Z,-0.10
2018-12-12T20:17:06.082Z,-0.20
2018-12-12T20:19:32.761Z,-0.20
2018-12-12T20:21:59.746Z,-0.30
2018-12-12T20:24:27.501Z,-0.30
2018-12-12T20:26:55.228Z,-0.20
2018-12-12T20:29:21.900Z,-0.30
2018-12-12T20:31:48.677Z,-0.20
2018-12-12T20:34:15.419Z,-0.20
2018-12-12T20:36:43.213Z,-0.20
2018-12-12T20:39:10.912Z,-0.10
2018-12-12T20:41:38.401Z,-0.10
2018-12-12T20:44:07.555Z,-0.10
2018-12-12T20:46:36.101Z,-0.10
2018-12-12T20:49:02.827Z,-0.10
2018-12-12T20:51:29.560Z,-0.10
2018-12-12T20:53:56.270Z,-0.10
2018-12-12T20:56:22.960Z,0.00
2018-12-12T20:58:49.713Z,0.10
2018-12-12T21:01:16.364Z,0.10
2018-12-12T21:03:43.071Z,0.10
2018-12-12T21:06:09.761Z,0.00
2018-12-12T21:08:36.480Z,-0.10
2018-12-12T21:11:03.123Z,-0.20
2018-12-12T21:13:30.640Z,-0.30
2018-12-12T21:15:57.329Z,-0.40
2018-12-12T21:18:23.995Z,-0.40
2018-12-12T21:20:50.692Z,-0.40
2018-12-12T21:23:17.327Z,-0.50
2018-12-12T21:25:44.463Z,-0.50
2018-12-12T21:28:11.108Z,-0.40
2018-12-12T21:30:37.809Z,-0.40
2018-12-12T21:33:04.462Z,-0.40
2018-12-12T21:35:31.144Z,-0.40
2018-12-12T21:37:57.777Z,-0.40
2018-12-12T21:40:24.453Z,-0.40
2018-12-12T21:42:51.129Z,-0.60
2018-12-12T21:45:17.872Z,-0.70
2018-12-12T21:47:44.590Z,-0.70
2018-12-12T21:50:11.269Z,-0.70
2018-12-12T21:52:37.969Z,-0.70
2018-12-12T21:55:04.773Z,-0.70
2018-12-12T21:57:31.460Z,-0.70
2018-12-12T21:59:59.024Z,-0.70
2018-12-12T22:02:25.721Z,-0.70
2018-12-12T22:04:52.380Z,-0.70
2018-12-12T22:07:19.072Z,-0.60
2018-12-12T22:09:45.721Z,-0.60
2018-12-12T22:12:12.396Z,-0.60
2018-12-12T22:14:39.052Z,-0.60
2018-12-12T22:17:06.662Z,-0.70
2018-12-12T22:19:33.312Z,-0.60
2018-12-12T22:22:00.020Z,-0.60
2018-12-12T22:24:26.662Z,-0.60
2018-12-12T22:26:53.352Z,-0.60
2018-12-12T22:29:26.867Z,-0.60
2018-12-12T22:31:53.560Z,-0.60
2018-12-12T22:34:20.245Z,-0.60
2018-12-12T22:36:46.911Z,-0.50
2018-12-12T22:39:13.601Z,-0.50
2018-12-12T22:41:40.261Z,-0.50
2018-12-12T22:44:06.939Z,-0.40
2018-12-12T22:46:33.648Z,-0.40
2018-12-12T22:49:00.308Z,-0.40
2018-12-12T22:51:27.124Z,-0.40
2018-12-12T22:53:53.919Z,-0.40
2018-12-12T22:56:20.620Z,-0.40
2018-12-12T22:58:47.319Z,-0.40
2018-12-12T23:01:16.020Z,-0.40
2018-12-12T23:03:42.624Z,-0.40
2018-12-12T23:06:09.263Z,-0.40
2018-12-12T23:08:35.936Z,-0.40
2018-12-12T23:11:02.604Z,-0.40
2018-12-12T23:13:29.285Z,-0.30
2018-12-12T23:15:56.199Z,-0.40
2018-12-12T23:18:23.057Z,-0.40
2018-12-12T23:20:49.902Z,-0.40
2018-12-12T23:23:16.700Z,-0.40
2018-12-12T23:26:08.072Z,-0.30
2018-12-12T23:28:35.007Z,-0.30
2018-12-12T23:31:01.778Z,-0.30
2018-12-12T23:33:28.428Z,-0.30
2018-12-12T23:35:55.144Z,-0.30
2018-12-12T23:38:21.824Z,-0.30
2018-12-12T23:40:48.454Z,-0.30
2018-12-12T23:43:15.836Z,-0.30
2018-12-12T23:45:42.550Z,-0.30
2018-12-12T23:48:09.225Z,-0.30
2018-12-12T23:50:35.940Z,-0.30
2018-12-12T23:53:02.624Z,-0.30
2018-12-12T23:55:29.294Z,-0.30
2018-12-12T23:57:55.980Z,-0.30
